Terminal Aerodrome Forecast
Issued by NWS La Crosse, WI

Home | Current Version | Previous Version | Text Only | Print | Product List | Glossary On
Versions: 1 2 3 4 5 6 7 8 9 10 11 12 13 14 15 16 17 18
000
FTUS43 KARX 241334 AAA
TAFLSE
TAF AMD
KLSE 241334Z 2414/2512 36010KT 3SM -SN OVC015
     FM241500 01014G24KT 1 1/2SM -SN OVC008
     FM242300 35013G21KT 2SM -SN OVC010
     FM250600 34012KT P6SM OVC035=

USA.gov is the U.S. government's official web portal to all federal, state and local government web resources and services.